Kleine Brogel Air Base


Codes: EBBL/
Name: Kleine Brogel Air Base
City: Kleine Brogel
Country: Belgium
Elevation: 200 ft.

Photos at Kleine Brogel Air Base


   Photos courtesy of SpottingLog. You can add your own sightings and photos by signing up for a free trial today.



RN-06, 08-Sep-2023
© Erik van der Eyken

FA-102, 08-Sep-2023
© Erik van der Eyken

E-191, 08-Sep-2023
© Erik van der Eyken

15136, 08-Sep-2023
© Erik van der Eyken

15101, 08-Sep-2023
© Erik van der Eyken

ZM516, 08-Sep-2023
© Erik van der Eyken

ZM511, 08-Sep-2023
© Erik van der Eyken

20-5595, 08-Sep-2023
© Erik van der Eyken

44+79, 08-Sep-2023
© Erik van der Eyken

3H-FG, 08-Sep-2023
© Erik van der Eyken

3H-FC, 08-Sep-2023
© Erik van der Eyken

FA-136, 08-Sep-2023
© Erik van der Eyken


Weather at Kleine Brogel Air Base


Time (UTC)DescriptionTempratureWindCloud coverageVisibilityPressureHumidity
19-Apr-2024 06:00Light Rain7°C18 mph, W100%10000m1011hPa92%
19-Apr-2024 09:00Light Rain8°C18 mph, NW100%10000m1010hPa89%
19-Apr-2024 12:00Light Rain9°C18 mph, NW100%10000m1009hPa88%
19-Apr-2024 15:00Light Rain8°C18 mph, NW100%10000m1011hPa78%
19-Apr-2024 18:00Light Rain6°C16 mph, NW74%10000m1013hPa76%
19-Apr-2024 21:00Broken Clouds6°C16 mph, NW71%10000m1015hPa79%
20-Apr-2024 00:00Light Rain6°C13 mph, NW86%10000m1016hPa85%
20-Apr-2024 03:00Light Rain5°C9 mph, NW81%10000m1018hPa87%
20-Apr-2024 06:00Light Rain5°C11 mph, NW91%9721m1020hPa94%
20-Apr-2024 09:00Light Rain6°C11 mph, NW100%10000m1022hPa90%
20-Apr-2024 12:00Light Rain8°C11 mph, N100%10000m1023hPa69%
20-Apr-2024 15:00Light Rain8°C16 mph, NW81%10000m1023hPa68%
20-Apr-2024 18:00Light Rain6°C11 mph, NW90%10000m1024hPa83%
20-Apr-2024 21:00Overcast Clouds4°C9 mph, NW93%10000m1024hPa90%
21-Apr-2024 00:00Light Rain5°C11 mph, NW90%10000m1024hPa90%
21-Apr-2024 03:00Light Rain4°C11 mph, NE100%10000m1025hPa93%
21-Apr-2024 06:00Broken Clouds4°C7 mph, NE82%10000m1026hPa93%
21-Apr-2024 09:00Light Rain8°C11 mph, NE34%10000m1027hPa67%
21-Apr-2024 12:00Light Rain10°C11 mph, E51%10000m1027hPa58%
21-Apr-2024 15:00Light Rain10°C9 mph, NE68%10000m1026hPa50%
21-Apr-2024 18:00Broken Clouds8°C7 mph, N60%10000m1026hPa62%
21-Apr-2024 21:00Overcast Clouds6°C9 mph, NE86%10000m1028hPa73%
22-Apr-2024 00:00Overcast Clouds4°C9 mph, NE85%10000m1028hPa85%
22-Apr-2024 03:00Broken Clouds3°C7 mph, N74%10000m1028hPa90%
22-Apr-2024 06:00Broken Clouds4°C7 mph, N71%10000m1027hPa82%
22-Apr-2024 09:00Light Rain8°C9 mph, NE62%10000m1027hPa65%
22-Apr-2024 12:00Light Rain9°C9 mph, NE81%10000m1025hPa51%
22-Apr-2024 15:00Light Rain9°C11 mph, N99%10000m1023hPa46%
22-Apr-2024 18:00Light Rain7°C9 mph, N77%10000m1022hPa65%
22-Apr-2024 21:00Overcast Clouds4°C7 mph, N90%10000m1022hPa84%
23-Apr-2024 00:00Broken Clouds2°C4 mph, N65%10000m1021hPa95%
23-Apr-2024 03:00Few Clouds1°C4 mph, NE13%10000m1020hPa95%
23-Apr-2024 06:00Clear Sky2°C7 mph, NE10%10000m1020hPa83%
23-Apr-2024 09:00Clear Sky7°C13 mph, NE7%7849m1019hPa64%
23-Apr-2024 12:00Scattered Clouds11°C9 mph, NE36%10000m1018hPa48%
23-Apr-2024 15:00Light Rain11°C9 mph, NE83%10000m1017hPa48%
23-Apr-2024 18:00Broken Clouds9°C9 mph, NE66%10000m1017hPa62%
23-Apr-2024 21:00Clear Sky5°C7 mph, N8%10000m1018hPa71%
24-Apr-2024 00:00Few Clouds3°C4 mph, N13%10000m1018hPa85%
24-Apr-2024 03:00Broken Clouds2°C4 mph, NW51%10000m1017hPa83%